createdAt,value
2023-05-15T00:04:53.757Z,3.92
2023-05-15T00:09:55.119Z,3.55
2023-05-15T00:14:56.439Z,4.40
2023-05-15T00:19:59.165Z,3.83
2023-05-15T00:25:00.455Z,3.77
2023-05-15T00:30:01.845Z,3.70
2023-05-15T00:35:03.286Z,3.28
2023-05-15T00:40:04.992Z,3.30
2023-05-15T00:45:09.749Z,3.22
2023-05-15T00:50:11.335Z,3.27
2023-05-15T00:55:12.701Z,4.28
2023-05-15T01:00:16.662Z,4.10
2023-05-15T01:05:17.993Z,3.97
2023-05-15T01:10:19.636Z,4.10
2023-05-15T01:15:21.130Z,4.00
2023-05-15T01:20:22.817Z,3.60
2023-05-15T01:25:30.004Z,3.60
2023-05-15T01:30:34.183Z,3.40
2023-05-15T01:35:39.289Z,3.42
2023-05-15T01:40:41.432Z,4.20
2023-05-15T01:45:43.047Z,3.90
2023-05-15T01:50:45.692Z,3.97
2023-05-15T01:55:48.595Z,3.73
2023-05-15T02:00:50.435Z,3.58
2023-05-15T02:05:53.225Z,3.67
2023-05-15T02:10:58.455Z,3.88
2023-05-15T02:15:59.854Z,3.53
2023-05-15T02:21:02.756Z,3.10
2023-05-15T02:26:22.174Z,3.58
2023-05-15T02:31:29.549Z,3.50
2023-05-15T02:36:33.123Z,3.30
2023-05-15T02:41:36.116Z,3.90
2023-05-15T02:46:38.859Z,3.53
2023-05-15T02:51:40.288Z,3.40
2023-05-15T02:56:41.593Z,3.87
2023-05-15T03:01:43.301Z,3.67
2023-05-15T03:06:44.664Z,3.50
2023-05-15T03:11:45.987Z,3.73
2023-05-15T03:16:47.277Z,3.83
2023-05-15T03:21:48.577Z,3.73
2023-05-15T03:26:49.825Z,3.90
2023-05-15T03:31:51.204Z,4.38
2023-05-15T03:36:52.515Z,3.97
2023-05-15T03:41:53.798Z,3.88
2023-05-15T03:46:55.270Z,3.47
2023-05-15T03:51:56.758Z,3.65
2023-05-15T03:56:58.132Z,3.80
2023-05-15T04:02:04.673Z,3.80
2023-05-15T04:07:07.367Z,3.67
2023-05-15T04:12:08.731Z,3.53
2023-05-15T04:17:10.001Z,3.80
2023-05-15T04:22:11.249Z,3.85
2023-05-15T04:27:12.987Z,3.70
2023-05-15T04:32:14.374Z,4.10
2023-05-15T04:37:15.719Z,4.23
2023-05-15T04:42:17.101Z,3.60
2023-05-15T04:47:18.434Z,3.85
2023-05-15T04:52:19.796Z,3.60
2023-05-15T04:57:21.533Z,4.03
2023-05-15T05:02:23.161Z,4.07
2023-05-15T05:07:24.486Z,3.80
2023-05-15T05:12:27.305Z,3.60
2023-05-15T05:17:29.605Z,3.73
2023-05-15T05:22:31.054Z,3.20
2023-05-15T05:27:32.367Z,4.00
2023-05-15T05:32:33.713Z,3.87
2023-05-15T05:37:35.113Z,4.40
2023-05-15T05:42:36.414Z,4.00
2023-05-15T05:47:37.674Z,5.90
2023-05-15T05:52:38.971Z,3.47
2023-05-15T05:57:40.368Z,3.17
2023-05-15T06:02:41.811Z,3.47
2023-05-15T06:07:43.297Z,5.68
2023-05-15T06:12:45.127Z,3.20
2023-05-15T06:17:46.417Z,3.70
2023-05-15T06:22:47.673Z,3.35
2023-05-15T06:27:49.041Z,2.97
2023-05-15T06:32:50.344Z,5.00
2023-05-15T06:37:52.956Z,3.70
2023-05-15T06:42:54.207Z,3.92
2023-05-15T06:47:55.610Z,3.00
2023-05-15T06:52:57.128Z,3.90
2023-05-15T06:57:58.461Z,3.30
2023-05-15T07:02:59.816Z,3.60
2023-05-15T07:08:01.306Z,3.28
2023-05-15T07:13:02.604Z,4.57
2023-05-15T07:18:03.983Z,3.10
2023-05-15T07:23:05.265Z,3.23
2023-05-15T07:28:06.561Z,8.25
2023-05-15T07:33:07.935Z,3.63
2023-05-15T07:38:09.328Z,2.93
2023-05-15T07:43:10.641Z,3.28
2023-05-15T07:48:18.828Z,3.42
2023-05-15T07:53:20.143Z,5.10
2023-05-15T07:58:21.484Z,4.13
2023-05-15T08:03:23.114Z,3.10
2023-05-15T08:08:24.663Z,2.80
2023-05-15T08:13:25.982Z,3.80
2023-05-15T08:18:27.366Z,2.90
2023-05-15T08:23:28.679Z,2.80
2023-05-15T08:28:29.999Z,3.73
2023-05-15T08:33:31.254Z,3.63
2023-05-15T08:38:32.590Z,3.97
2023-05-15T08:43:35.941Z,3.00
2023-05-15T08:48:39.530Z,3.10
2023-05-15T08:53:41.130Z,2.80
2023-05-15T08:58:42.774Z,3.00
2023-05-15T09:03:44.113Z,2.67
2023-05-15T09:08:46.289Z,2.88
2023-05-15T09:13:47.615Z,2.53
2023-05-15T09:18:49.585Z,2.53
2023-05-15T09:23:51.267Z,3.22
2023-05-15T09:29:00.999Z,2.42
2023-05-15T09:34:04.460Z,3.57
2023-05-15T09:39:07.624Z,2.88
2023-05-15T09:44:20.654Z,2.20
2023-05-15T09:49:22.887Z,2.80
2023-05-15T09:54:25.145Z,2.60
2023-05-15T09:59:26.491Z,2.38
2023-05-15T10:04:33.879Z,2.80
2023-05-15T10:09:35.227Z,2.90
2023-05-15T10:14:36.667Z,2.83
2023-05-15T10:19:47.166Z,2.75
2023-05-15T10:25:03.254Z,2.50
2023-05-15T10:30:04.939Z,2.50
2023-05-15T10:35:06.631Z,2.20
2023-05-15T10:40:11.432Z,2.90
2023-05-15T10:45:12.985Z,2.67
2023-05-15T10:50:15.076Z,2.80
2023-05-15T10:55:17.449Z,3.10
2023-05-15T11:00:18.742Z,2.47
2023-05-15T11:05:20.116Z,2.50
2023-05-15T11:10:27.569Z,4.10
2023-05-15T11:15:40.959Z,2.87
2023-05-15T11:21:02.214Z,2.90
2023-05-15T11:26:05.423Z,2.90
2023-05-15T11:31:07.147Z,2.40
2023-05-15T11:36:08.772Z,2.77
2023-05-15T11:41:17.218Z,2.10
2023-05-15T11:46:20.666Z,2.13
2023-05-15T11:51:23.137Z,1.67
2023-05-15T11:56:25.731Z,1.80
2023-05-15T12:01:27.046Z,2.30
2023-05-15T12:06:28.332Z,3.00
2023-05-15T12:11:29.631Z,2.60
2023-05-15T12:16:30.958Z,2.50
2023-05-15T12:21:32.337Z,2.20
2023-05-15T12:26:33.891Z,2.43
2023-05-15T12:31:35.625Z,2.20
2023-05-15T12:36:37.034Z,2.20
2023-05-15T12:41:38.955Z,2.33
2023-05-15T12:46:40.946Z,2.33
2023-05-15T12:51:42.773Z,1.73
2023-05-15T12:56:44.236Z,2.13
2023-05-15T13:01:45.874Z,2.03
2023-05-15T13:06:47.892Z,2.00
2023-05-15T13:11:49.559Z,3.07
2023-05-15T13:16:50.899Z,2.40
2023-05-15T13:21:52.229Z,2.67
2023-05-15T13:26:53.635Z,3.85
2023-05-15T13:31:55.027Z,2.50
2023-05-15T13:36:58.887Z,2.53
2023-05-15T13:42:00.672Z,5.15
2023-05-15T13:47:04.296Z,11.40
2023-05-15T13:52:05.912Z,5.00
2023-05-15T13:57:07.169Z,3.03
2023-05-15T14:02:08.488Z,2.80
2023-05-15T14:07:09.883Z,6.97
2023-05-15T14:12:11.294Z,2.95
2023-05-15T14:17:13.256Z,2.00
2023-05-15T14:22:14.792Z,6.70
2023-05-15T14:27:16.073Z,3.35
2023-05-15T14:32:17.501Z,7.03
2023-05-15T14:37:19.544Z,2.60
2023-05-15T14:42:21.351Z,2.65
2023-05-15T14:47:22.788Z,2.67
2023-05-15T14:52:24.086Z,2.53
2023-05-15T14:57:26.148Z,2.80
2023-05-15T15:02:27.586Z,2.95
2023-05-15T15:07:30.132Z,3.00
2023-05-15T15:12:31.468Z,2.73
2023-05-15T15:17:32.836Z,3.05
2023-05-15T15:22:34.327Z,3.13
2023-05-15T15:27:37.037Z,2.77
2023-05-15T15:32:39.095Z,2.60
2023-05-15T15:37:40.477Z,3.20
2023-05-15T15:42:41.785Z,2.70
2023-05-15T15:47:43.278Z,3.47
2023-05-15T15:52:44.671Z,3.17
2023-05-15T15:57:45.988Z,2.42
2023-05-15T16:02:47.381Z,2.40
2023-05-15T16:07:48.898Z,2.53
2023-05-15T16:12:51.158Z,2.63
2023-05-15T16:17:53.491Z,2.67
2023-05-15T16:22:55.613Z,2.40
2023-05-15T16:27:56.976Z,2.50
2023-05-15T16:32:58.818Z,2.63
2023-05-15T16:38:00.247Z,2.67
2023-05-15T16:43:01.498Z,3.10
2023-05-15T16:48:03.054Z,3.20
2023-05-15T16:53:04.727Z,2.90
2023-05-15T16:58:06.109Z,2.88
2023-05-15T17:03:07.708Z,2.30
2023-05-15T17:08:09.070Z,2.90
2023-05-15T17:13:10.616Z,2.72
2023-05-15T17:18:11.929Z,2.78
2023-05-15T17:23:13.250Z,3.00
2023-05-15T17:28:14.534Z,3.20
2023-05-15T17:33:15.876Z,3.10
2023-05-15T17:38:17.335Z,3.70
2023-05-15T17:43:18.662Z,3.67
2023-05-15T17:48:20.125Z,3.50
2023-05-15T17:53:24.032Z,3.00
2023-05-15T17:58:25.414Z,2.90
2023-05-15T18:03:26.911Z,3.40
2023-05-15T18:08:28.338Z,3.88
2023-05-15T18:13:29.701Z,3.60
2023-05-15T18:18:31.146Z,4.28
2023-05-15T18:23:32.587Z,6.88
2023-05-15T18:28:34.085Z,4.37
2023-05-15T18:33:35.536Z,3.88
2023-05-15T18:38:36.930Z,4.57
2023-05-15T18:43:38.362Z,4.33
2023-05-15T18:48:39.785Z,4.53
2023-05-15T18:53:41.059Z,4.75
2023-05-15T18:58:42.450Z,4.23
2023-05-15T19:03:43.800Z,4.77
2023-05-15T19:08:46.074Z,5.32
2023-05-15T19:13:47.346Z,5.00
2023-05-15T19:18:48.623Z,5.30
2023-05-15T19:23:50.126Z,5.10
2023-05-15T19:28:52.896Z,4.90
2023-05-15T19:33:54.190Z,5.33
2023-05-15T19:38:55.989Z,5.68
2023-05-15T19:43:57.292Z,5.40
2023-05-15T19:48:58.646Z,5.67
2023-05-15T19:54:01.951Z,5.45
2023-05-15T19:59:03.409Z,4.93
2023-05-15T20:04:04.894Z,5.20
2023-05-15T20:09:06.499Z,4.80
2023-05-15T20:14:07.762Z,5.27
2023-05-15T20:19:11.024Z,5.20
2023-05-15T20:24:12.548Z,5.30
2023-05-15T20:29:13.916Z,4.90
2023-05-15T20:34:15.938Z,4.70
2023-05-15T20:39:17.289Z,5.10
2023-05-15T20:44:18.799Z,5.50
2023-05-15T20:49:20.447Z,4.90
2023-05-15T20:54:21.742Z,5.35
2023-05-15T20:59:23.086Z,5.13
2023-05-15T21:04:24.326Z,5.27
2023-05-15T21:09:25.676Z,4.85
2023-05-15T21:14:27.072Z,5.05
2023-05-15T21:19:28.393Z,4.83
2023-05-15T21:24:29.695Z,5.60
2023-05-15T21:29:30.992Z,5.32
2023-05-15T21:34:32.483Z,5.70
2023-05-15T21:39:33.795Z,5.57
2023-05-15T21:44:35.129Z,5.45
2023-05-15T21:49:36.461Z,5.67
2023-05-15T21:54:37.872Z,5.68
2023-05-15T21:59:39.212Z,5.77
2023-05-15T22:04:41.356Z,5.40
2023-05-15T22:09:43.237Z,5.60
2023-05-15T22:14:57.552Z,6.00
2023-05-15T22:20:07.711Z,6.13
2023-05-15T22:25:09.676Z,5.80
2023-05-15T22:30:11.199Z,5.90
2023-05-15T22:35:13.238Z,5.57
2023-05-15T22:40:14.657Z,6.28
2023-05-15T22:45:17.283Z,5.63
2023-05-15T22:50:19.852Z,6.10
2023-05-15T22:55:21.192Z,5.88
2023-05-15T23:00:22.522Z,6.00
2023-05-15T23:05:24.817Z,5.78
2023-05-15T23:10:26.405Z,6.38
2023-05-15T23:15:28.244Z,6.30
2023-05-15T23:20:30.034Z,6.40
2023-05-15T23:25:31.680Z,7.07
2023-05-15T23:30:33.000Z,7.43
2023-05-15T23:35:34.300Z,8.05
2023-05-15T23:40:35.766Z,8.07
2023-05-15T23:45:37.007Z,10.03
2023-05-15T23:50:38.307Z,10.13
2023-05-15T23:55:39.618Z,9.30
